createdAt,value
2022-12-16T00:01:14.415Z,18.80
2022-12-16T00:03:42.378Z,19.85
2022-12-16T00:06:10.059Z,20.38
2022-12-16T00:08:39.441Z,19.30
2022-12-16T00:11:09.226Z,18.30
2022-12-16T00:13:37.776Z,20.50
2022-12-16T00:16:10.630Z,18.83
2022-12-16T00:18:37.849Z,19.75
2022-12-16T00:21:05.936Z,19.90
2022-12-16T00:23:34.322Z,20.02
2022-12-16T00:26:01.854Z,19.50
2022-12-16T00:28:28.821Z,20.23
2022-12-16T00:30:56.413Z,21.00
2022-12-16T00:33:25.637Z,20.05
2022-12-16T00:35:53.071Z,19.23
2022-12-16T00:38:21.227Z,20.05
2022-12-16T00:40:48.186Z,20.05
2022-12-16T00:43:15.029Z,19.33
2022-12-16T00:45:41.884Z,18.45
2022-12-16T00:48:08.897Z,19.70
2022-12-16T00:50:36.182Z,18.95
2022-12-16T00:53:04.045Z,18.67
2022-12-16T00:55:32.629Z,18.85
2022-12-16T00:57:59.487Z,18.38
2022-12-16T01:00:27.378Z,18.52
2022-12-16T01:02:54.304Z,18.48
2022-12-16T01:05:26.960Z,20.10
2022-12-16T01:07:54.622Z,17.95
2022-12-16T01:10:22.157Z,18.35
2022-12-16T01:12:49.668Z,17.52
2022-12-16T01:15:18.178Z,18.85
2022-12-16T01:17:44.986Z,18.05
2022-12-16T01:20:13.400Z,18.52
2022-12-16T01:22:40.476Z,18.15
2022-12-16T01:25:08.324Z,16.90
2022-12-16T01:27:35.486Z,16.35
2022-12-16T01:30:02.841Z,16.92
2022-12-16T01:32:30.025Z,16.50
2022-12-16T01:34:56.879Z,17.75
2022-12-16T01:37:24.395Z,19.30
2022-12-16T01:39:52.282Z,17.95
2022-12-16T01:42:22.630Z,16.65
2022-12-16T01:44:52.210Z,16.48
2022-12-16T01:47:32.855Z,16.38
2022-12-16T01:50:04.321Z,15.25
2022-12-16T01:52:36.311Z,16.35
2022-12-16T01:55:23.780Z,15.38
2022-12-16T01:58:04.631Z,16.15
2022-12-16T02:00:31.482Z,15.38
2022-12-16T02:02:58.684Z,15.52
2022-12-16T02:05:26.582Z,16.25
2022-12-16T02:07:56.346Z,16.58
2022-12-16T02:10:48.274Z,15.32
2022-12-16T02:13:33.612Z,12.35
2022-12-16T02:16:37.656Z,16.48
2022-12-16T02:19:43.026Z,16.08
2022-12-16T02:22:13.089Z,15.52
2022-12-16T02:25:02.034Z,15.10
2022-12-16T02:27:54.973Z,15.32
2022-12-16T02:30:47.020Z,15.38
2022-12-16T02:33:33.178Z,15.38
2022-12-16T02:36:31.962Z,15.45
2022-12-16T02:39:18.895Z,15.45
2022-12-16T02:41:58.070Z,14.52
2022-12-16T02:44:35.534Z,15.27
2022-12-16T02:47:02.873Z,14.55
2022-12-16T02:49:30.201Z,14.60
2022-12-16T02:51:59.724Z,14.85
2022-12-16T02:54:27.934Z,14.23
2022-12-16T02:57:16.618Z,14.98
2022-12-16T03:00:15.649Z,15.85
2022-12-16T03:02:51.567Z,15.00
2022-12-16T03:05:42.112Z,14.55
2022-12-16T03:08:21.738Z,14.88
2022-12-16T03:10:54.187Z,14.55
2022-12-16T03:13:22.969Z,15.35
2022-12-16T03:15:53.821Z,15.38
2022-12-16T03:18:22.058Z,14.25
2022-12-16T03:21:00.637Z,15.50
2022-12-16T03:24:03.345Z,14.48
2022-12-16T03:26:36.056Z,14.73
2022-12-16T03:29:06.483Z,15.30
2022-12-16T03:31:48.325Z,15.15
2022-12-16T03:34:20.878Z,14.13
2022-12-16T03:36:52.775Z,13.60
2022-12-16T03:39:23.216Z,15.55
2022-12-16T03:41:53.962Z,15.40
2022-12-16T03:44:22.735Z,14.57
2022-12-16T03:46:50.053Z,15.38
2022-12-16T03:49:16.808Z,14.93
2022-12-16T03:51:43.631Z,14.18
2022-12-16T03:54:10.507Z,14.23
2022-12-16T03:56:37.291Z,14.23
2022-12-16T03:59:04.056Z,13.88
2022-12-16T04:01:30.978Z,14.32
2022-12-16T04:03:57.856Z,14.63
2022-12-16T04:06:24.666Z,14.82
2022-12-16T04:08:51.409Z,15.95
2022-12-16T04:11:36.602Z,15.30
2022-12-16T04:14:21.962Z,16.60
2022-12-16T04:17:07.491Z,16.48
2022-12-16T04:19:55.471Z,17.40
2022-12-16T04:22:49.577Z,16.25
2022-12-16T04:25:32.410Z,15.93
2022-12-16T04:27:59.747Z,15.10
2022-12-16T04:30:27.961Z,15.02
2022-12-16T04:33:31.617Z,15.10
2022-12-16T04:36:17.369Z,16.27
2022-12-16T04:39:02.856Z,15.65
2022-12-16T04:41:47.940Z,15.90
2022-12-16T04:44:34.555Z,15.18
2022-12-16T04:47:20.116Z,14.73
2022-12-16T04:50:05.546Z,16.13
2022-12-16T04:52:51.095Z,15.65
2022-12-16T04:55:36.596Z,14.10
2022-12-16T04:58:32.078Z,14.50
2022-12-16T05:01:18.224Z,14.65
2022-12-16T05:04:03.917Z,15.35
2022-12-16T05:06:49.220Z,15.55
2022-12-16T05:09:34.635Z,15.27
2022-12-16T05:12:20.038Z,14.57
2022-12-16T05:15:05.531Z,14.13
2022-12-16T05:17:51.293Z,14.48
2022-12-16T05:20:36.603Z,13.20
2022-12-16T05:23:22.251Z,13.50
2022-12-16T05:26:07.369Z,13.65
2022-12-16T05:28:52.891Z,14.82
2022-12-16T05:31:38.437Z,13.88
2022-12-16T05:34:23.539Z,13.65
2022-12-16T05:37:09.081Z,13.70
2022-12-16T05:39:54.557Z,12.70
2022-12-16T05:42:40.054Z,13.65
2022-12-16T05:45:25.558Z,13.38
2022-12-16T05:48:11.114Z,14.40
2022-12-16T05:50:56.598Z,14.45
2022-12-16T05:53:41.850Z,14.98
2022-12-16T05:56:27.225Z,15.10
2022-12-16T05:59:29.420Z,14.93
2022-12-16T06:02:45.369Z,15.35
2022-12-16T06:05:30.697Z,15.85
2022-12-16T06:08:16.331Z,15.15
2022-12-16T06:11:01.691Z,14.82
2022-12-16T06:13:46.932Z,15.93
2022-12-16T06:16:32.189Z,15.85
2022-12-16T06:19:17.870Z,16.60
2022-12-16T06:22:03.423Z,15.27
2022-12-16T06:24:48.808Z,14.88
2022-12-16T06:27:34.020Z,14.02
2022-12-16T06:30:19.440Z,13.88
2022-12-16T06:33:04.979Z,13.60
2022-12-16T06:35:50.250Z,13.32
2022-12-16T06:38:35.761Z,13.13
2022-12-16T06:41:20.923Z,11.95
2022-12-16T06:44:06.525Z,12.55
2022-12-16T06:46:51.871Z,12.32
2022-12-16T06:49:37.375Z,11.98
2022-12-16T06:52:22.952Z,11.95
2022-12-16T06:55:08.359Z,11.82
2022-12-16T06:57:53.696Z,12.65
2022-12-16T07:00:39.263Z,11.02
2022-12-16T07:03:24.853Z,12.00
2022-12-16T07:06:14.119Z,11.55
2022-12-16T07:08:59.764Z,12.63
2022-12-16T07:11:45.226Z,12.73
2022-12-16T07:14:30.641Z,13.55
2022-12-16T07:17:17.398Z,13.93
2022-12-16T07:20:03.479Z,13.10
2022-12-16T07:22:52.226Z,13.57
2022-12-16T07:25:44.019Z,17.02
2022-12-16T07:28:29.449Z,16.55
2022-12-16T07:31:19.439Z,15.48
2022-12-16T07:34:05.088Z,17.02
2022-12-16T07:36:50.809Z,17.52
2022-12-16T07:39:36.033Z,16.88
2022-12-16T07:42:21.533Z,18.90
2022-12-16T07:45:07.034Z,19.17
2022-12-16T07:47:52.442Z,20.40
2022-12-16T07:50:54.600Z,19.75
2022-12-16T07:53:41.762Z,18.63
2022-12-16T07:56:27.540Z,22.92
2022-12-16T07:59:13.280Z,20.70
2022-12-16T08:01:58.763Z,21.10
2022-12-16T08:04:44.536Z,22.05
2022-12-16T08:07:30.349Z,19.25
2022-12-16T08:10:15.665Z,18.95
2022-12-16T08:13:01.210Z,20.48
2022-12-16T08:15:46.773Z,40.15
2022-12-16T08:18:32.055Z,25.20
2022-12-16T08:21:17.547Z,22.67
2022-12-16T08:24:07.592Z,21.98
2022-12-16T08:26:53.130Z,22.92
2022-12-16T08:29:44.654Z,21.40
2022-12-16T08:32:31.579Z,20.23
2022-12-16T08:35:16.917Z,17.80
2022-12-16T08:38:02.237Z,17.92
2022-12-16T08:40:47.622Z,16.75
2022-12-16T08:43:34.109Z,17.35
2022-12-16T08:46:19.932Z,17.83
2022-12-16T08:49:05.354Z,17.27
2022-12-16T08:51:51.005Z,18.70
2022-12-16T08:54:36.502Z,17.83
2022-12-16T08:57:22.061Z,17.63
2022-12-16T09:00:07.531Z,19.23
2022-12-16T09:02:53.141Z,19.15
2022-12-16T09:05:41.720Z,20.42
2022-12-16T09:08:27.152Z,19.52
2022-12-16T09:11:12.594Z,21.50
2022-12-16T09:13:58.056Z,20.65
2022-12-16T09:16:43.644Z,18.70
2022-12-16T09:19:29.558Z,21.58
2022-12-16T09:22:14.751Z,20.30
2022-12-16T09:25:00.079Z,20.88
2022-12-16T09:27:45.606Z,20.63
2022-12-16T09:30:31.176Z,19.80
2022-12-16T09:33:16.878Z,19.55
2022-12-16T09:36:02.361Z,20.02
2022-12-16T09:38:47.662Z,19.00
2022-12-16T09:41:46.947Z,18.73
2022-12-16T09:44:41.176Z,17.40
2022-12-16T09:47:42.026Z,18.67
2022-12-16T09:50:38.483Z,17.17
2022-12-16T09:53:27.964Z,17.98
2022-12-16T09:56:13.925Z,18.15
2022-12-16T09:59:04.664Z,18.33
2022-12-16T10:01:54.744Z,17.30
2022-12-16T10:04:43.093Z,16.77
2022-12-16T10:07:53.803Z,16.65
2022-12-16T10:10:59.378Z,16.20
2022-12-16T10:14:06.946Z,17.13
2022-12-16T10:17:04.594Z,15.88
2022-12-16T10:20:08.739Z,16.83
2022-12-16T10:23:33.939Z,18.95
2022-12-16T10:26:44.456Z,17.40
2022-12-16T10:29:49.861Z,19.02
2022-12-16T10:32:54.403Z,17.83
2022-12-16T10:35:46.714Z,17.95
2022-12-16T10:38:46.177Z,18.27
2022-12-16T10:41:34.247Z,18.98
2022-12-16T10:44:22.499Z,19.77
2022-12-16T10:47:08.099Z,18.75
2022-12-16T10:49:54.958Z,17.60
2022-12-16T10:52:40.710Z,17.95
2022-12-16T10:56:12.504Z,18.13
2022-12-16T10:59:00.841Z,17.90
2022-12-16T11:01:47.073Z,18.52
2022-12-16T11:04:48.846Z,17.73
2022-12-16T11:08:04.816Z,17.50
2022-12-16T11:10:56.456Z,18.52
2022-12-16T11:13:48.894Z,19.13
2022-12-16T11:16:44.212Z,17.35
2022-12-16T11:19:42.855Z,17.50
2022-12-16T11:22:36.913Z,17.95
2022-12-16T11:25:31.148Z,19.42
2022-12-16T11:28:24.461Z,18.88
2022-12-16T11:31:13.963Z,17.73
2022-12-16T11:34:00.819Z,17.92
2022-12-16T11:36:46.449Z,17.08
2022-12-16T11:39:39.142Z,17.90
2022-12-16T11:42:28.175Z,17.67
2022-12-16T11:45:17.624Z,18.05
2022-12-16T11:48:12.130Z,18.42
2022-12-16T11:51:06.991Z,19.75
2022-12-16T11:54:15.229Z,19.45
2022-12-16T11:57:03.841Z,17.85
2022-12-16T11:59:58.647Z,18.55
2022-12-16T12:03:13.674Z,19.88
2022-12-16T12:06:39.014Z,18.98
2022-12-16T12:09:34.385Z,20.75
2022-12-16T12:12:38.730Z,19.40
2022-12-16T12:15:26.803Z,19.45
2022-12-16T12:18:21.320Z,19.13
2022-12-16T12:21:17.311Z,19.75
2022-12-16T12:24:19.536Z,18.95
2022-12-16T12:27:33.199Z,18.98
2022-12-16T12:30:25.319Z,19.67
2022-12-16T12:33:38.582Z,19.10
2022-12-16T12:36:49.828Z,18.20
2022-12-16T12:39:38.162Z,17.77
2022-12-16T12:42:48.735Z,18.40
2022-12-16T12:45:49.924Z,18.35
2022-12-16T12:48:46.813Z,18.60
2022-12-16T12:51:49.340Z,20.40
2022-12-16T12:54:43.863Z,19.45
2022-12-16T12:57:32.360Z,19.10
2022-12-16T13:00:27.094Z,18.30
2022-12-16T13:03:31.883Z,18.95
2022-12-16T13:06:19.360Z,17.40
2022-12-16T13:09:18.347Z,17.98
2022-12-16T13:12:26.016Z,18.45
2022-12-16T13:15:52.117Z,16.45
2022-12-16T13:18:43.989Z,17.25
2022-12-16T13:21:57.635Z,17.25
2022-12-16T13:25:06.746Z,16.88
2022-12-16T13:28:11.946Z,17.55
2022-12-16T13:30:57.761Z,17.70
2022-12-16T13:33:55.093Z,17.80
2022-12-16T13:36:52.859Z,16.95
2022-12-16T13:39:47.046Z,16.45
2022-12-16T13:43:07.872Z,15.57
2022-12-16T13:45:59.341Z,14.68
2022-12-16T13:49:02.659Z,14.60
2022-12-16T13:51:57.119Z,15.80
2022-12-16T13:54:59.386Z,15.88
2022-12-16T13:57:47.683Z,11.43
2022-12-16T14:00:40.957Z,17.15
2022-12-16T14:03:38.970Z,16.77
2022-12-16T14:06:31.282Z,15.60
2022-12-16T14:09:16.644Z,17.13
2022-12-16T14:12:27.933Z,17.67
2022-12-16T14:15:24.823Z,16.75
2022-12-16T14:18:33.457Z,16.77
2022-12-16T14:21:22.326Z,16.00
2022-12-16T14:24:24.733Z,16.42
2022-12-16T14:27:10.148Z,17.55
2022-12-16T14:29:56.729Z,16.70
2022-12-16T14:32:53.790Z,19.27
2022-12-16T14:35:42.441Z,19.35
2022-12-16T14:38:47.802Z,19.95
2022-12-16T14:41:43.848Z,20.10
2022-12-16T14:44:42.114Z,19.88
2022-12-16T14:47:37.163Z,21.65
2022-12-16T14:50:30.118Z,21.27
2022-12-16T14:53:39.017Z,22.15
2022-12-16T14:56:42.054Z,21.08
2022-12-16T15:02:47.122Z,20.80
2022-12-16T15:05:33.400Z,21.35
2022-12-16T15:08:19.642Z,21.70
2022-12-16T15:11:05.405Z,21.67
2022-12-16T15:13:54.343Z,22.50
2022-12-16T15:16:49.909Z,19.55
2022-12-16T15:19:40.621Z,21.88
2022-12-16T15:22:34.784Z,19.98
2022-12-16T15:25:20.775Z,21.65
2022-12-16T15:28:34.424Z,21.95
2022-12-16T15:31:19.695Z,22.00
2022-12-16T15:34:05.030Z,20.90
2022-12-16T15:36:53.205Z,22.17
2022-12-16T15:39:39.949Z,22.17
2022-12-16T15:42:40.750Z,24.83
2022-12-16T15:45:36.887Z,23.52
2022-12-16T15:48:33.810Z,22.40
2022-12-16T15:51:19.263Z,22.85
2022-12-16T15:54:04.985Z,22.10
2022-12-16T15:57:02.804Z,22.88
2022-12-16T15:59:54.488Z,23.73
2022-12-16T16:02:45.318Z,24.50
2022-12-16T16:05:43.335Z,25.65
2022-12-16T16:08:29.997Z,23.48
2022-12-16T16:11:15.402Z,22.55
2022-12-16T16:14:06.224Z,21.95
2022-12-16T16:16:55.128Z,22.77
2022-12-16T16:19:43.549Z,24.15
2022-12-16T16:22:34.537Z,24.95
2022-12-16T16:25:19.826Z,25.55
2022-12-16T16:28:05.399Z,25.10
2022-12-16T16:30:51.227Z,23.92
2022-12-16T16:33:37.172Z,23.85
2022-12-16T16:36:32.677Z,21.15
2022-12-16T16:39:18.454Z,22.75
2022-12-16T16:42:03.692Z,23.98
2022-12-16T16:45:00.178Z,24.27
2022-12-16T16:47:45.786Z,24.60
2022-12-16T16:50:34.248Z,27.25
2022-12-16T16:53:19.687Z,31.40
2022-12-16T16:56:04.945Z,31.42
2022-12-16T16:58:52.981Z,30.65
2022-12-16T17:01:38.593Z,31.20
2022-12-16T17:04:24.348Z,32.33
2022-12-16T17:07:10.776Z,33.53
2022-12-16T17:09:56.134Z,33.85
2022-12-16T17:12:46.297Z,36.78
2022-12-16T17:15:50.273Z,40.55
2022-12-16T17:18:37.697Z,28.08
2022-12-16T17:21:26.762Z,30.35
2022-12-16T17:24:12.286Z,33.63
2022-12-16T17:27:01.917Z,23.95
2022-12-16T17:29:48.044Z,29.88
2022-12-16T17:32:33.591Z,29.80
2022-12-16T17:35:21.882Z,26.92
2022-12-16T17:38:07.514Z,24.30
2022-12-16T17:40:52.884Z,24.42
2022-12-16T17:43:38.349Z,23.48
2022-12-16T17:46:26.453Z,23.70
2022-12-16T17:49:13.439Z,24.98
2022-12-16T17:52:00.053Z,22.58
2022-12-16T17:54:45.465Z,22.35
2022-12-16T17:57:31.058Z,24.02
2022-12-16T18:00:16.822Z,24.08
2022-12-16T18:03:02.561Z,22.92
2022-12-16T18:05:48.415Z,24.75
2022-12-16T18:08:33.944Z,22.40
2022-12-16T18:11:19.278Z,21.20
2022-12-16T18:14:04.762Z,21.98
2022-12-16T18:16:50.253Z,21.65
2022-12-16T18:19:36.233Z,23.13
2022-12-16T18:22:22.265Z,21.83
2022-12-16T18:25:07.788Z,22.98
2022-12-16T18:27:54.834Z,21.15
2022-12-16T18:30:40.462Z,19.73
2022-12-16T18:33:26.013Z,24.30
2022-12-16T18:36:11.503Z,28.23
2022-12-16T18:38:57.043Z,26.60
2022-12-16T18:41:42.612Z,25.75
2022-12-16T18:44:32.165Z,24.55
2022-12-16T18:47:17.685Z,21.45
2022-12-16T18:50:03.230Z,22.27
2022-12-16T18:52:48.772Z,22.23
2022-12-16T18:55:34.291Z,22.35
2022-12-16T18:58:50.751Z,22.17
2022-12-16T19:01:28.790Z,22.20
2022-12-16T19:04:15.548Z,24.77
2022-12-16T19:07:10.636Z,24.13
2022-12-16T19:09:56.260Z,20.88
2022-12-16T19:12:41.694Z,20.33
2022-12-16T19:15:27.542Z,19.10
2022-12-16T19:18:12.916Z,18.60
2022-12-16T19:20:58.529Z,19.20
2022-12-16T19:23:43.914Z,18.90
2022-12-16T19:26:29.310Z,20.27
2022-12-16T19:29:14.779Z,21.80
2022-12-16T19:32:00.361Z,21.90
2022-12-16T19:34:45.605Z,21.85
2022-12-16T19:37:31.144Z,21.38
2022-12-16T19:40:17.998Z,21.40
2022-12-16T19:43:03.472Z,23.60
2022-12-16T19:45:49.110Z,24.30
2022-12-16T19:48:34.827Z,23.33
2022-12-16T19:51:21.322Z,19.67
2022-12-16T19:56:33.590Z,20.73
2022-12-16T19:59:19.210Z,24.20
2022-12-16T20:02:04.580Z,26.20
2022-12-16T20:04:50.050Z,24.75
2022-12-16T20:07:35.582Z,24.20
2022-12-16T20:10:20.800Z,23.63
2022-12-16T20:13:06.331Z,23.08
2022-12-16T20:15:51.926Z,19.95
2022-12-16T20:18:37.190Z,19.98
2022-12-16T20:21:23.774Z,19.35
2022-12-16T20:24:09.153Z,20.65
2022-12-16T20:26:54.645Z,20.77
2022-12-16T20:29:41.010Z,22.27
2022-12-16T20:32:26.559Z,22.23
2022-12-16T20:35:12.294Z,21.17
2022-12-16T20:37:57.720Z,23.05
2022-12-16T20:40:43.626Z,22.58
2022-12-16T20:43:30.946Z,22.85
2022-12-16T20:46:16.271Z,24.08
2022-12-16T20:49:01.993Z,23.42
2022-12-16T20:51:49.080Z,22.20
2022-12-16T20:54:34.680Z,22.75
2022-12-16T20:57:20.077Z,23.83
2022-12-16T21:00:05.437Z,22.58
2022-12-16T21:02:53.420Z,23.35
2022-12-16T21:05:39.332Z,22.85
2022-12-16T21:08:24.630Z,20.90
2022-12-16T21:11:14.334Z,21.80
2022-12-16T21:13:59.760Z,22.13
2022-12-16T21:16:45.500Z,22.65
2022-12-16T21:19:33.572Z,21.00
2022-12-16T21:22:19.629Z,24.05
2022-12-16T21:25:05.175Z,22.70
2022-12-16T21:27:50.570Z,24.02
2022-12-16T21:30:35.874Z,21.75
2022-12-16T21:33:21.168Z,20.70
2022-12-16T21:36:13.428Z,21.75
2022-12-16T21:38:58.789Z,15.93
2022-12-16T21:41:44.183Z,21.45
2022-12-16T21:44:29.559Z,21.48
2022-12-16T21:47:14.896Z,20.77
2022-12-16T21:50:00.306Z,23.40
2022-12-16T21:52:45.917Z,21.42
2022-12-16T21:55:31.671Z,20.08
2022-12-16T21:58:17.090Z,19.17
2022-12-16T22:01:02.251Z,21.00
2022-12-16T22:03:54.873Z,19.00
2022-12-16T22:06:48.251Z,20.63
2022-12-16T22:09:34.634Z,20.70
2022-12-16T22:12:20.176Z,20.95
2022-12-16T22:15:05.841Z,20.33
2022-12-16T22:17:57.721Z,20.13
2022-12-16T22:20:44.123Z,21.67
2022-12-16T22:23:29.445Z,20.70
2022-12-16T22:26:16.150Z,20.92
2022-12-16T22:29:01.443Z,21.60
2022-12-16T22:31:47.532Z,22.92
2022-12-16T22:34:33.134Z,21.80
2022-12-16T22:37:18.607Z,22.23
2022-12-16T22:40:04.235Z,21.42
2022-12-16T22:42:49.562Z,23.70
2022-12-16T22:45:35.030Z,22.95
2022-12-16T22:48:20.758Z,24.63
2022-12-16T22:51:06.341Z,24.75
2022-12-16T22:53:51.682Z,27.08
2022-12-16T22:56:37.252Z,29.10
2022-12-16T22:59:22.565Z,29.27
2022-12-16T23:02:08.296Z,30.58
2022-12-16T23:04:53.752Z,26.90
2022-12-16T23:07:39.557Z,26.33
2022-12-16T23:10:25.635Z,25.15
2022-12-16T23:13:10.987Z,27.55
2022-12-16T23:15:56.538Z,29.98
2022-12-16T23:18:42.328Z,28.58
2022-12-16T23:21:37.248Z,28.63
2022-12-16T23:24:23.346Z,27.42
2022-12-16T23:27:10.849Z,28.02
2022-12-16T23:29:56.795Z,26.73
2022-12-16T23:32:43.352Z,26.75
2022-12-16T23:35:29.093Z,28.48
2022-12-16T23:38:24.462Z,28.42
2022-12-16T23:41:18.691Z,27.35
2022-12-16T23:44:04.316Z,27.77
2022-12-16T23:46:50.001Z,27.40
2022-12-16T23:49:35.415Z,28.50
2022-12-16T23:52:20.929Z,28.30
2022-12-16T23:55:06.401Z,27.23
2022-12-16T23:57:51.936Z,28.02
